LIRV

Viterbo Airport

Viterbo, Italy
TAF LIRV 251400Z 2515/2524 04017KT CAVOK
Issued Valid From Valid To
Sep-25 @ 14:00 UTC
(2 hours ago)
Sep-25 @ 15:00 UTC
(43 minutes ago)
Sep-26 @ 00:00 UTC
(in 8 hours)
Sep-25 @ 15:00 to Sep-26 @ 00:00
TAF LIRV 251400Z 2515/2524 04017KT CAVOK
Wind Visibility Clouds Conditions
40° at 17 knots 10,000+ meters
  • No significant clouds
TAF LIRV 251400Z 2515/2524 04017KT CAVOK
Issued Sep-25 @ 14:00 UTC
(2 hours ago)
Valid From Sep-25 @ 15:00 UTC
(43 minutes ago)
Valid To Sep-26 @ 00:00 UTC
(in 8 hours)
Sep-25 @ 15:00 - Sep-26 @ 00:00
Wind Visibility
40° at 17 knots 10,000+ meters
Clouds
  • No significant clouds
Conditions